sensor_id;sensor_type;location;lat;lon;timestamp;P1;durP1;ratioP1;P2;durP2;ratioP2
912;SDS011;443;51.448;7.028;2022-11-20T00:00:06;14.77;;;10.53;;
912;SDS011;443;51.448;7.028;2022-11-20T00:02:33;17.07;;;12.00;;
912;SDS011;443;51.448;7.028;2022-11-20T00:05:00;17.87;;;11.93;;
912;SDS011;443;51.448;7.028;2022-11-20T00:07:27;14.90;;;11.10;;
912;SDS011;443;51.448;7.028;2022-11-20T00:09:55;15.30;;;11.23;;
912;SDS011;443;51.448;7.028;2022-11-20T00:12:22;14.53;;;10.60;;
912;SDS011;443;51.448;7.028;2022-11-20T00:14:49;12.17;;;10.50;;
912;SDS011;443;51.448;7.028;2022-11-20T00:17:15;14.40;;;10.30;;
912;SDS011;443;51.448;7.028;2022-11-20T00:19:42;12.80;;;10.30;;
912;SDS011;443;51.448;7.028;2022-11-20T00:22:09;13.43;;;11.30;;
912;SDS011;443;51.448;7.028;2022-11-20T00:24:36;14.70;;;11.37;;
912;SDS011;443;51.448;7.028;2022-11-20T00:27:04;15.53;;;11.53;;
912;SDS011;443;51.448;7.028;2022-11-20T00:29:31;11.27;;;9.70;;
912;SDS011;443;51.448;7.028;2022-11-20T00:31:57;15.70;;;11.00;;
912;SDS011;443;51.448;7.028;2022-11-20T00:34:24;16.60;;;11.77;;
912;SDS011;443;51.448;7.028;2022-11-20T00:36:51;17.80;;;12.27;;
912;SDS011;443;51.448;7.028;2022-11-20T00:39:18;16.23;;;11.57;;
912;SDS011;443;51.448;7.028;2022-11-20T00:41:46;13.50;;;11.53;;
912;SDS011;443;51.448;7.028;2022-11-20T00:44:14;20.33;;;10.57;;
912;SDS011;443;51.448;7.028;2022-11-20T00:46:41;15.33;;;12.90;;
912;SDS011;443;51.448;7.028;2022-11-20T00:49:07;14.47;;;10.57;;
912;SDS011;443;51.448;7.028;2022-11-20T00:51:34;13.77;;;11.07;;
912;SDS011;443;51.448;7.028;2022-11-20T00:54:01;17.67;;;12.53;;
912;SDS011;443;51.448;7.028;2022-11-20T00:56:28;15.20;;;11.20;;
912;SDS011;443;51.448;7.028;2022-11-20T00:58:55;13.60;;;10.97;;
912;SDS011;443;51.448;7.028;2022-11-20T01:01:26;13.87;;;10.67;;
912;SDS011;443;51.448;7.028;2022-11-20T01:03:54;15.13;;;10.63;;
912;SDS011;443;51.448;7.028;2022-11-20T01:06:22;12.60;;;11.10;;
912;SDS011;443;51.448;7.028;2022-11-20T01:08:52;16.23;;;11.63;;
912;SDS011;443;51.448;7.028;2022-11-20T01:11:21;17.60;;;11.13;;
912;SDS011;443;51.448;7.028;2022-11-20T01:13:51;14.10;;;10.77;;
912;SDS011;443;51.448;7.028;2022-11-20T01:16:19;15.13;;;11.70;;
912;SDS011;443;51.448;7.028;2022-11-20T01:18:49;16.30;;;11.90;;
912;SDS011;443;51.448;7.028;2022-11-20T01:21:18;17.17;;;12.90;;
912;SDS011;443;51.448;7.028;2022-11-20T01:23:47;13.97;;;10.13;;
912;SDS011;443;51.448;7.028;2022-11-20T01:26:16;18.87;;;12.60;;
912;SDS011;443;51.448;7.028;2022-11-20T01:28:44;13.97;;;10.83;;
912;SDS011;443;51.448;7.028;2022-11-20T01:31:12;15.00;;;10.30;;
912;SDS011;443;51.448;7.028;2022-11-20T01:33:40;15.07;;;13.03;;
912;SDS011;443;51.448;7.028;2022-11-20T01:36:09;18.60;;;13.10;;
912;SDS011;443;51.448;7.028;2022-11-20T01:38:37;17.33;;;13.30;;
912;SDS011;443;51.448;7.028;2022-11-20T01:41:04;15.73;;;10.80;;
912;SDS011;443;51.448;7.028;2022-11-20T01:43:32;16.90;;;11.20;;
912;SDS011;443;51.448;7.028;2022-11-20T01:46:00;18.50;;;13.07;;
912;SDS011;443;51.448;7.028;2022-11-20T01:48:30;13.40;;;10.27;;
912;SDS011;443;51.448;7.028;2022-11-20T01:51:01;15.90;;;10.97;;
912;SDS011;443;51.448;7.028;2022-11-20T01:53:32;16.07;;;12.80;;
912;SDS011;443;51.448;7.028;2022-11-20T01:56:02;14.10;;;11.40;;
912;SDS011;443;51.448;7.028;2022-11-20T01:58:33;17.23;;;11.50;;
912;SDS011;443;51.448;7.028;2022-11-20T02:01:03;14.90;;;11.20;;
912;SDS011;443;51.448;7.028;2022-11-20T02:03:30;17.07;;;11.43;;
912;SDS011;443;51.448;7.028;2022-11-20T02:06:00;17.90;;;12.30;;
912;SDS011;443;51.448;7.028;2022-11-20T02:08:33;14.80;;;11.00;;
912;SDS011;443;51.448;7.028;2022-11-20T02:11:01;14.33;;;11.70;;
912;SDS011;443;51.448;7.028;2022-11-20T02:13:28;16.63;;;11.27;;
912;SDS011;443;51.448;7.028;2022-11-20T02:16:16;13.90;;;11.00;;
912;SDS011;443;51.448;7.028;2022-11-20T02:18:46;14.70;;;10.93;;
912;SDS011;443;51.448;7.028;2022-11-20T02:21:17;17.13;;;11.70;;
912;SDS011;443;51.448;7.028;2022-11-20T02:24:02;13.90;;;10.67;;
912;SDS011;443;51.448;7.028;2022-11-20T02:26:31;14.07;;;10.97;;
912;SDS011;443;51.448;7.028;2022-11-20T02:29:00;17.50;;;11.60;;
912;SDS011;443;51.448;7.028;2022-11-20T02:31:33;12.90;;;10.10;;
912;SDS011;443;51.448;7.028;2022-11-20T02:34:04;14.90;;;10.97;;
912;SDS011;443;51.448;7.028;2022-11-20T02:36:32;15.83;;;11.73;;
912;SDS011;443;51.448;7.028;2022-11-20T02:39:02;14.90;;;11.20;;
912;SDS011;443;51.448;7.028;2022-11-20T02:41:33;13.47;;;9.83;;
912;SDS011;443;51.448;7.028;2022-11-20T02:44:00;18.60;;;11.40;;
912;SDS011;443;51.448;7.028;2022-11-20T02:46:28;13.23;;;9.97;;
912;SDS011;443;51.448;7.028;2022-11-20T02:48:55;18.27;;;10.50;;
912;SDS011;443;51.448;7.028;2022-11-20T02:51:22;19.90;;;12.50;;
912;SDS011;443;51.448;7.028;2022-11-20T02:53:49;15.50;;;12.20;;
912;SDS011;443;51.448;7.028;2022-11-20T02:56:18;13.57;;;10.87;;
912;SDS011;443;51.448;7.028;2022-11-20T02:58:45;13.50;;;11.77;;
912;SDS011;443;51.448;7.028;2022-11-20T03:01:12;13.20;;;11.33;;
912;SDS011;443;51.448;7.028;2022-11-20T03:03:39;14.73;;;10.17;;
912;SDS011;443;51.448;7.028;2022-11-20T03:06:06;14.60;;;11.10;;
912;SDS011;443;51.448;7.028;2022-11-20T03:08:33;16.67;;;11.40;;
912;SDS011;443;51.448;7.028;2022-11-20T03:11:04;17.93;;;11.20;;
912;SDS011;443;51.448;7.028;2022-11-20T03:13:33;12.00;;;9.90;;
912;SDS011;443;51.448;7.028;2022-11-20T03:16:05;14.30;;;10.13;;
912;SDS011;443;51.448;7.028;2022-11-20T03:18:33;14.40;;;10.90;;
912;SDS011;443;51.448;7.028;2022-11-20T03:20:59;15.13;;;10.50;;
912;SDS011;443;51.448;7.028;2022-11-20T03:23:28;14.80;;;10.70;;
912;SDS011;443;51.448;7.028;2022-11-20T03:25:55;18.13;;;11.33;;
912;SDS011;443;51.448;7.028;2022-11-20T03:28:22;13.33;;;10.30;;
912;SDS011;443;51.448;7.028;2022-11-20T03:30:50;15.27;;;9.90;;
912;SDS011;443;51.448;7.028;2022-11-20T03:33:17;13.90;;;11.27;;
912;SDS011;443;51.448;7.028;2022-11-20T03:35:44;13.67;;;10.83;;
912;SDS011;443;51.448;7.028;2022-11-20T03:38:11;15.30;;;12.07;;
912;SDS011;443;51.448;7.028;2022-11-20T03:40:37;14.03;;;10.80;;
912;SDS011;443;51.448;7.028;2022-11-20T03:43:04;15.53;;;10.37;;
912;SDS011;443;51.448;7.028;2022-11-20T03:45:31;13.43;;;11.03;;
912;SDS011;443;51.448;7.028;2022-11-20T03:47:59;13.63;;;10.40;;
912;SDS011;443;51.448;7.028;2022-11-20T03:50:26;15.80;;;11.20;;
912;SDS011;443;51.448;7.028;2022-11-20T03:52:52;15.83;;;11.50;;
912;SDS011;443;51.448;7.028;2022-11-20T03:55:19;14.63;;;10.10;;
912;SDS011;443;51.448;7.028;2022-11-20T03:57:46;11.50;;;10.17;;
912;SDS011;443;51.448;7.028;2022-11-20T04:00:13;15.23;;;10.10;;
912;SDS011;443;51.448;7.028;2022-11-20T04:02:40;11.73;;;9.03;;
912;SDS011;443;51.448;7.028;2022-11-20T04:05:09;16.47;;;12.37;;
912;SDS011;443;51.448;7.028;2022-11-20T04:07:35;16.47;;;10.50;;
912;SDS011;443;51.448;7.028;2022-11-20T04:10:02;11.30;;;10.07;;
912;SDS011;443;51.448;7.028;2022-11-20T04:12:31;15.17;;;10.47;;
912;SDS011;443;51.448;7.028;2022-11-20T04:14:58;12.03;;;8.77;;
912;SDS011;443;51.448;7.028;2022-11-20T04:17:25;13.70;;;10.37;;
912;SDS011;443;51.448;7.028;2022-11-20T04:19:52;13.57;;;10.77;;
912;SDS011;443;51.448;7.028;2022-11-20T04:22:20;17.77;;;12.50;;
912;SDS011;443;51.448;7.028;2022-11-20T04:24:47;11.83;;;9.63;;
912;SDS011;443;51.448;7.028;2022-11-20T04:27:13;11.83;;;9.50;;
912;SDS011;443;51.448;7.028;2022-11-20T04:29:40;17.63;;;11.40;;
912;SDS011;443;51.448;7.028;2022-11-20T04:32:07;18.07;;;12.17;;
912;SDS011;443;51.448;7.028;2022-11-20T04:34:34;16.07;;;10.97;;
912;SDS011;443;51.448;7.028;2022-11-20T04:37:00;15.50;;;10.07;;
912;SDS011;443;51.448;7.028;2022-11-20T04:39:28;16.97;;;11.03;;
912;SDS011;443;51.448;7.028;2022-11-20T04:41:55;16.27;;;11.20;;
912;SDS011;443;51.448;7.028;2022-11-20T04:44:36;14.53;;;11.03;;
912;SDS011;443;51.448;7.028;2022-11-20T04:47:03;12.63;;;10.03;;
912;SDS011;443;51.448;7.028;2022-11-20T04:49:29;13.80;;;10.30;;
912;SDS011;443;51.448;7.028;2022-11-20T04:51:56;17.17;;;10.80;;
912;SDS011;443;51.448;7.028;2022-11-20T04:54:23;18.63;;;11.93;;
912;SDS011;443;51.448;7.028;2022-11-20T04:56:52;13.83;;;10.30;;
912;SDS011;443;51.448;7.028;2022-11-20T04:59:18;15.00;;;11.30;;
912;SDS011;443;51.448;7.028;2022-11-20T05:01:45;16.10;;;11.43;;
912;SDS011;443;51.448;7.028;2022-11-20T05:04:12;13.63;;;11.17;;
912;SDS011;443;51.448;7.028;2022-11-20T05:06:39;15.17;;;11.83;;
912;SDS011;443;51.448;7.028;2022-11-20T05:09:05;14.20;;;10.27;;
912;SDS011;443;51.448;7.028;2022-11-20T05:11:32;16.97;;;11.73;;
912;SDS011;443;51.448;7.028;2022-11-20T05:14:00;14.37;;;11.30;;
912;SDS011;443;51.448;7.028;2022-11-20T05:16:27;16.03;;;11.40;;
912;SDS011;443;51.448;7.028;2022-11-20T05:18:54;14.23;;;11.87;;
912;SDS011;443;51.448;7.028;2022-11-20T05:21:21;17.37;;;12.27;;
912;SDS011;443;51.448;7.028;2022-11-20T05:23:48;14.17;;;11.70;;
912;SDS011;443;51.448;7.028;2022-11-20T05:26:16;14.10;;;11.40;;
912;SDS011;443;51.448;7.028;2022-11-20T05:28:44;17.10;;;11.30;;
912;SDS011;443;51.448;7.028;2022-11-20T05:31:13;15.10;;;11.20;;
912;SDS011;443;51.448;7.028;2022-11-20T05:33:43;14.00;;;11.00;;
912;SDS011;443;51.448;7.028;2022-11-20T05:36:11;15.40;;;10.43;;
912;SDS011;443;51.448;7.028;2022-11-20T05:38:39;12.70;;;9.83;;
912;SDS011;443;51.448;7.028;2022-11-20T05:41:07;14.97;;;11.20;;
912;SDS011;443;51.448;7.028;2022-11-20T05:43:34;12.93;;;11.33;;
912;SDS011;443;51.448;7.028;2022-11-20T05:46:02;14.53;;;10.97;;
912;SDS011;443;51.448;7.028;2022-11-20T05:48:32;14.30;;;12.33;;
912;SDS011;443;51.448;7.028;2022-11-20T05:51:01;14.17;;;10.97;;
912;SDS011;443;51.448;7.028;2022-11-20T05:53:28;14.43;;;11.37;;
912;SDS011;443;51.448;7.028;2022-11-20T05:55:56;13.57;;;10.07;;
912;SDS011;443;51.448;7.028;2022-11-20T05:58:23;15.00;;;10.70;;
912;SDS011;443;51.448;7.028;2022-11-20T06:00:50;12.77;;;9.03;;
912;SDS011;443;51.448;7.028;2022-11-20T06:03:17;13.47;;;10.60;;
912;SDS011;443;51.448;7.028;2022-11-20T06:05:45;14.20;;;10.00;;
912;SDS011;443;51.448;7.028;2022-11-20T06:08:12;11.60;;;9.60;;
912;SDS011;443;51.448;7.028;2022-11-20T06:10:39;14.93;;;9.90;;
912;SDS011;443;51.448;7.028;2022-11-20T06:13:06;13.37;;;9.97;;
912;SDS011;443;51.448;7.028;2022-11-20T06:15:33;16.57;;;10.33;;
912;SDS011;443;51.448;7.028;2022-11-20T06:17:59;14.30;;;10.40;;
912;SDS011;443;51.448;7.028;2022-11-20T06:20:26;15.90;;;10.80;;
912;SDS011;443;51.448;7.028;2022-11-20T06:22:54;15.07;;;10.80;;
912;SDS011;443;51.448;7.028;2022-11-20T06:25:21;14.93;;;10.20;;
912;SDS011;443;51.448;7.028;2022-11-20T06:27:48;16.07;;;10.63;;
912;SDS011;443;51.448;7.028;2022-11-20T06:30:15;15.40;;;11.20;;
912;SDS011;443;51.448;7.028;2022-11-20T06:32:42;15.60;;;10.73;;
912;SDS011;443;51.448;7.028;2022-11-20T06:35:09;13.53;;;9.77;;
912;SDS011;443;51.448;7.028;2022-11-20T06:37:36;15.90;;;10.53;;
912;SDS011;443;51.448;7.028;2022-11-20T06:40:05;17.40;;;9.73;;
912;SDS011;443;51.448;7.028;2022-11-20T06:42:32;13.90;;;11.27;;
912;SDS011;443;51.448;7.028;2022-11-20T06:44:59;19.30;;;11.80;;
912;SDS011;443;51.448;7.028;2022-11-20T06:47:26;20.67;;;10.60;;
912;SDS011;443;51.448;7.028;2022-11-20T06:49:52;13.70;;;10.23;;
912;SDS011;443;51.448;7.028;2022-11-20T06:52:19;15.60;;;11.20;;
912;SDS011;443;51.448;7.028;2022-11-20T06:54:46;15.87;;;12.70;;
912;SDS011;443;51.448;7.028;2022-11-20T06:57:14;14.63;;;10.60;;
912;SDS011;443;51.448;7.028;2022-11-20T06:59:41;14.57;;;10.80;;
912;SDS011;443;51.448;7.028;2022-11-20T07:02:09;13.00;;;9.90;;
912;SDS011;443;51.448;7.028;2022-11-20T07:04:36;16.20;;;11.17;;
912;SDS011;443;51.448;7.028;2022-11-20T07:07:03;15.43;;;10.97;;
912;SDS011;443;51.448;7.028;2022-11-20T07:09:31;14.30;;;10.53;;
912;SDS011;443;51.448;7.028;2022-11-20T07:11:58;18.40;;;12.27;;
912;SDS011;443;51.448;7.028;2022-11-20T07:14:26;19.23;;;12.07;;
912;SDS011;443;51.448;7.028;2022-11-20T07:16:53;13.90;;;11.53;;
912;SDS011;443;51.448;7.028;2022-11-20T07:19:20;17.53;;;12.07;;
912;SDS011;443;51.448;7.028;2022-11-20T07:21:47;16.70;;;10.97;;
912;SDS011;443;51.448;7.028;2022-11-20T07:24:14;17.27;;;11.37;;
912;SDS011;443;51.448;7.028;2022-11-20T07:26:41;17.60;;;12.33;;
912;SDS011;443;51.448;7.028;2022-11-20T07:29:08;16.83;;;11.90;;
912;SDS011;443;51.448;7.028;2022-11-20T07:31:36;18.37;;;12.70;;
912;SDS011;443;51.448;7.028;2022-11-20T07:34:03;19.27;;;11.93;;
912;SDS011;443;51.448;7.028;2022-11-20T07:36:30;15.53;;;10.37;;
912;SDS011;443;51.448;7.028;2022-11-20T07:38:56;13.93;;;10.30;;
912;SDS011;443;51.448;7.028;2022-11-20T07:41:23;13.43;;;9.87;;
912;SDS011;443;51.448;7.028;2022-11-20T07:43:50;17.20;;;11.83;;
912;SDS011;443;51.448;7.028;2022-11-20T07:46:17;14.67;;;10.80;;
912;SDS011;443;51.448;7.028;2022-11-20T07:48:45;17.63;;;11.73;;
912;SDS011;443;51.448;7.028;2022-11-20T07:51:12;18.07;;;13.07;;
912;SDS011;443;51.448;7.028;2022-11-20T07:53:39;15.23;;;12.07;;
912;SDS011;443;51.448;7.028;2022-11-20T07:56:06;16.57;;;10.60;;
912;SDS011;443;51.448;7.028;2022-11-20T07:58:33;18.70;;;13.07;;
912;SDS011;443;51.448;7.028;2022-11-20T08:01:03;21.17;;;14.33;;
912;SDS011;443;51.448;7.028;2022-11-20T08:03:31;17.73;;;12.20;;
912;SDS011;443;51.448;7.028;2022-11-20T08:05:59;18.10;;;13.43;;
912;SDS011;443;51.448;7.028;2022-11-20T08:08:26;13.80;;;10.43;;
912;SDS011;443;51.448;7.028;2022-11-20T08:10:54;18.43;;;11.10;;
912;SDS011;443;51.448;7.028;2022-11-20T08:13:42;15.47;;;12.47;;
912;SDS011;443;51.448;7.028;2022-11-20T08:16:26;18.40;;;12.13;;
912;SDS011;443;51.448;7.028;2022-11-20T08:18:53;21.27;;;12.77;;
912;SDS011;443;51.448;7.028;2022-11-20T08:21:21;18.93;;;12.77;;
912;SDS011;443;51.448;7.028;2022-11-20T08:23:48;17.30;;;12.43;;
912;SDS011;443;51.448;7.028;2022-11-20T08:26:16;16.07;;;11.03;;
912;SDS011;443;51.448;7.028;2022-11-20T08:28:42;16.60;;;12.10;;
912;SDS011;443;51.448;7.028;2022-11-20T08:31:10;17.23;;;13.13;;
912;SDS011;443;51.448;7.028;2022-11-20T08:33:37;16.03;;;11.80;;
912;SDS011;443;51.448;7.028;2022-11-20T08:36:04;17.57;;;12.03;;
912;SDS011;443;51.448;7.028;2022-11-20T08:38:33;15.80;;;11.10;;
912;SDS011;443;51.448;7.028;2022-11-20T08:41:00;17.40;;;12.40;;
912;SDS011;443;51.448;7.028;2022-11-20T08:43:52;15.10;;;12.00;;
912;SDS011;443;51.448;7.028;2022-11-20T08:46:20;18.37;;;14.10;;
912;SDS011;443;51.448;7.028;2022-11-20T08:48:47;16.20;;;12.00;;
912;SDS011;443;51.448;7.028;2022-11-20T08:51:14;17.60;;;13.00;;
912;SDS011;443;51.448;7.028;2022-11-20T08:53:43;17.47;;;13.53;;
912;SDS011;443;51.448;7.028;2022-11-20T08:56:09;17.47;;;12.43;;
912;SDS011;443;51.448;7.028;2022-11-20T08:58:36;22.97;;;14.40;;
912;SDS011;443;51.448;7.028;2022-11-20T09:01:03;14.47;;;10.27;;
912;SDS011;443;51.448;7.028;2022-11-20T09:03:30;15.73;;;12.00;;
912;SDS011;443;51.448;7.028;2022-11-20T09:05:58;15.70;;;11.70;;
912;SDS011;443;51.448;7.028;2022-11-20T09:08:25;15.83;;;10.47;;
912;SDS011;443;51.448;7.028;2022-11-20T09:10:53;17.40;;;11.40;;
912;SDS011;443;51.448;7.028;2022-11-20T09:13:21;14.50;;;11.63;;
912;SDS011;443;51.448;7.028;2022-11-20T09:15:52;15.37;;;9.63;;
912;SDS011;443;51.448;7.028;2022-11-20T09:18:19;16.57;;;10.03;;
912;SDS011;443;51.448;7.028;2022-11-20T09:20:46;18.43;;;11.30;;
912;SDS011;443;51.448;7.028;2022-11-20T09:23:13;14.90;;;9.93;;
912;SDS011;443;51.448;7.028;2022-11-20T09:25:40;6.13;;;4.73;;
912;SDS011;443;51.448;7.028;2022-11-20T09:28:08;10.20;;;6.37;;
912;SDS011;443;51.448;7.028;2022-11-20T09:30:35;9.47;;;6.87;;
912;SDS011;443;51.448;7.028;2022-11-20T09:33:03;10.43;;;6.13;;
912;SDS011;443;51.448;7.028;2022-11-20T09:35:31;9.20;;;7.17;;
912;SDS011;443;51.448;7.028;2022-11-20T09:37:57;8.37;;;6.50;;
912;SDS011;443;51.448;7.028;2022-11-20T09:40:25;6.93;;;5.50;;
912;SDS011;443;51.448;7.028;2022-11-20T09:42:55;11.50;;;7.80;;
912;SDS011;443;51.448;7.028;2022-11-20T09:45:33;12.93;;;7.30;;
912;SDS011;443;51.448;7.028;2022-11-20T09:48:22;10.30;;;6.40;;
912;SDS011;443;51.448;7.028;2022-11-20T09:50:57;10.07;;;6.83;;
912;SDS011;443;51.448;7.028;2022-11-20T09:53:34;8.70;;;6.73;;
912;SDS011;443;51.448;7.028;2022-11-20T09:56:10;7.93;;;6.80;;
912;SDS011;443;51.448;7.028;2022-11-20T09:58:38;11.17;;;8.50;;
912;SDS011;443;51.448;7.028;2022-11-20T10:01:11;7.90;;;6.00;;
912;SDS011;443;51.448;7.028;2022-11-20T10:03:42;12.07;;;7.70;;
912;SDS011;443;51.448;7.028;2022-11-20T10:06:17;10.23;;;7.20;;
912;SDS011;443;51.448;7.028;2022-11-20T10:08:47;9.83;;;7.03;;
912;SDS011;443;51.448;7.028;2022-11-20T10:11:21;10.60;;;8.00;;
912;SDS011;443;51.448;7.028;2022-11-20T10:13:56;8.80;;;7.43;;
912;SDS011;443;51.448;7.028;2022-11-20T10:16:34;9.70;;;8.27;;
912;SDS011;443;51.448;7.028;2022-11-20T10:19:08;13.13;;;8.60;;
912;SDS011;443;51.448;7.028;2022-11-20T10:21:52;12.53;;;7.40;;
912;SDS011;443;51.448;7.028;2022-11-20T10:24:38;9.50;;;6.73;;
912;SDS011;443;51.448;7.028;2022-11-20T10:30:22;9.07;;;6.47;;
912;SDS011;443;51.448;7.028;2022-11-20T10:32:52;10.30;;;6.47;;
912;SDS011;443;51.448;7.028;2022-11-20T10:35:23;9.57;;;6.70;;
912;SDS011;443;51.448;7.028;2022-11-20T10:37:54;11.80;;;5.90;;
912;SDS011;443;51.448;7.028;2022-11-20T10:40:28;8.67;;;6.47;;
912;SDS011;443;51.448;7.028;2022-11-20T10:43:01;11.90;;;6.60;;
912;SDS011;443;51.448;7.028;2022-11-20T10:45:40;9.83;;;6.33;;
912;SDS011;443;51.448;7.028;2022-11-20T10:48:16;7.90;;;5.57;;
912;SDS011;443;51.448;7.028;2022-11-20T10:50:49;9.87;;;6.53;;
912;SDS011;443;51.448;7.028;2022-11-20T10:53:28;10.53;;;6.67;;
912;SDS011;443;51.448;7.028;2022-11-20T10:56:07;8.03;;;6.13;;
912;SDS011;443;51.448;7.028;2022-11-20T10:58:42;9.80;;;6.87;;
912;SDS011;443;51.448;7.028;2022-11-20T11:01:17;10.43;;;7.03;;
912;SDS011;443;51.448;7.028;2022-11-20T11:03:48;10.80;;;8.27;;
912;SDS011;443;51.448;7.028;2022-11-20T11:06:17;11.40;;;6.27;;
912;SDS011;443;51.448;7.028;2022-11-20T11:08:50;12.40;;;7.73;;
912;SDS011;443;51.448;7.028;2022-11-20T11:11:21;12.20;;;6.80;;
912;SDS011;443;51.448;7.028;2022-11-20T11:13:49;13.63;;;7.83;;
912;SDS011;443;51.448;7.028;2022-11-20T11:16:19;10.07;;;7.30;;
912;SDS011;443;51.448;7.028;2022-11-20T11:18:49;9.17;;;7.40;;
912;SDS011;443;51.448;7.028;2022-11-20T11:21:21;10.90;;;6.73;;
912;SDS011;443;51.448;7.028;2022-11-20T11:23:57;11.13;;;8.00;;
912;SDS011;443;51.448;7.028;2022-11-20T11:26:25;11.67;;;7.90;;
912;SDS011;443;51.448;7.028;2022-11-20T11:28:53;9.83;;;7.33;;
912;SDS011;443;51.448;7.028;2022-11-20T11:31:25;12.43;;;8.17;;
912;SDS011;443;51.448;7.028;2022-11-20T11:34:04;12.70;;;7.63;;
912;SDS011;443;51.448;7.028;2022-11-20T11:36:31;13.23;;;8.33;;
912;SDS011;443;51.448;7.028;2022-11-20T11:39:00;10.00;;;7.73;;
912;SDS011;443;51.448;7.028;2022-11-20T11:41:30;11.17;;;7.40;;
912;SDS011;443;51.448;7.028;2022-11-20T11:44:00;14.33;;;9.57;;
912;SDS011;443;51.448;7.028;2022-11-20T11:46:56;9.80;;;7.07;;
912;SDS011;443;51.448;7.028;2022-11-20T11:49:25;10.83;;;7.27;;
912;SDS011;443;51.448;7.028;2022-11-20T11:52:00;11.83;;;7.40;;
912;SDS011;443;51.448;7.028;2022-11-20T11:54:32;11.90;;;8.83;;
912;SDS011;443;51.448;7.028;2022-11-20T11:57:05;12.60;;;7.97;;
912;SDS011;443;51.448;7.028;2022-11-20T11:59:41;10.60;;;6.70;;
912;SDS011;443;51.448;7.028;2022-11-20T12:02:23;12.27;;;7.97;;
912;SDS011;443;51.448;7.028;2022-11-20T12:04:59;9.70;;;6.53;;
912;SDS011;443;51.448;7.028;2022-11-20T12:07:35;9.63;;;7.40;;
912;SDS011;443;51.448;7.028;2022-11-20T12:10:12;13.30;;;7.57;;
912;SDS011;443;51.448;7.028;2022-11-20T12:12:43;11.70;;;7.53;;
912;SDS011;443;51.448;7.028;2022-11-20T12:15:16;13.53;;;8.17;;
912;SDS011;443;51.448;7.028;2022-11-20T12:17:51;12.57;;;8.23;;
912;SDS011;443;51.448;7.028;2022-11-20T12:20:19;14.37;;;8.90;;
912;SDS011;443;51.448;7.028;2022-11-20T12:22:51;10.90;;;8.20;;
912;SDS011;443;51.448;7.028;2022-11-20T12:25:27;14.67;;;8.90;;
912;SDS011;443;51.448;7.028;2022-11-20T12:28:18;13.00;;;8.93;;
912;SDS011;443;51.448;7.028;2022-11-20T12:30:58;15.07;;;8.97;;
912;SDS011;443;51.448;7.028;2022-11-20T12:33:38;14.40;;;7.67;;
912;SDS011;443;51.448;7.028;2022-11-20T12:36:19;17.00;;;11.20;;
912;SDS011;443;51.448;7.028;2022-11-20T12:38:57;14.00;;;9.33;;
912;SDS011;443;51.448;7.028;2022-11-20T12:41:40;14.30;;;8.67;;
912;SDS011;443;51.448;7.028;2022-11-20T12:47:49;12.43;;;7.60;;
912;SDS011;443;51.448;7.028;2022-11-20T12:50:23;15.17;;;9.53;;
912;SDS011;443;51.448;7.028;2022-11-20T12:53:01;13.67;;;9.40;;
912;SDS011;443;51.448;7.028;2022-11-20T12:55:36;13.73;;;8.23;;
912;SDS011;443;51.448;7.028;2022-11-20T12:58:11;13.77;;;9.07;;
912;SDS011;443;51.448;7.028;2022-11-20T13:00:47;11.20;;;7.40;;
912;SDS011;443;51.448;7.028;2022-11-20T13:03:25;14.37;;;8.73;;
912;SDS011;443;51.448;7.028;2022-11-20T13:06:02;14.10;;;8.70;;
912;SDS011;443;51.448;7.028;2022-11-20T13:08:38;11.33;;;7.80;;
912;SDS011;443;51.448;7.028;2022-11-20T13:11:08;15.03;;;9.67;;
912;SDS011;443;51.448;7.028;2022-11-20T13:13:43;14.73;;;9.23;;
912;SDS011;443;51.448;7.028;2022-11-20T13:16:22;11.87;;;7.03;;
912;SDS011;443;51.448;7.028;2022-11-20T13:18:57;11.67;;;8.43;;
912;SDS011;443;51.448;7.028;2022-11-20T13:21:35;14.37;;;9.10;;
912;SDS011;443;51.448;7.028;2022-11-20T13:24:05;14.70;;;9.10;;
912;SDS011;443;51.448;7.028;2022-11-20T13:26:32;15.30;;;8.27;;
912;SDS011;443;51.448;7.028;2022-11-20T13:29:00;11.23;;;8.17;;
912;SDS011;443;51.448;7.028;2022-11-20T13:31:31;13.43;;;9.90;;
912;SDS011;443;51.448;7.028;2022-11-20T13:34:00;11.17;;;9.00;;
912;SDS011;443;51.448;7.028;2022-11-20T13:36:29;12.63;;;8.80;;
912;SDS011;443;51.448;7.028;2022-11-20T13:38:57;14.23;;;9.37;;
912;SDS011;443;51.448;7.028;2022-11-20T13:41:27;12.07;;;8.30;;
912;SDS011;443;51.448;7.028;2022-11-20T13:44:04;13.40;;;8.50;;
912;SDS011;443;51.448;7.028;2022-11-20T13:46:39;14.10;;;9.30;;
912;SDS011;443;51.448;7.028;2022-11-20T13:49:09;14.17;;;9.73;;
912;SDS011;443;51.448;7.028;2022-11-20T13:51:42;14.50;;;9.70;;
912;SDS011;443;51.448;7.028;2022-11-20T14:00:10;15.33;;;9.43;;
912;SDS011;443;51.448;7.028;2022-11-20T14:02:39;13.30;;;9.53;;
912;SDS011;443;51.448;7.028;2022-11-20T14:05:06;18.43;;;11.50;;
912;SDS011;443;51.448;7.028;2022-11-20T14:07:46;15.00;;;10.00;;
912;SDS011;443;51.448;7.028;2022-11-20T14:10:21;14.73;;;10.20;;
912;SDS011;443;51.448;7.028;2022-11-20T14:12:50;13.90;;;9.83;;
912;SDS011;443;51.448;7.028;2022-11-20T14:15:27;13.93;;;10.33;;
912;SDS011;443;51.448;7.028;2022-11-20T14:17:55;18.03;;;11.40;;
912;SDS011;443;51.448;7.028;2022-11-20T14:20:23;16.93;;;10.60;;
912;SDS011;443;51.448;7.028;2022-11-20T14:22:52;14.60;;;9.27;;
912;SDS011;443;51.448;7.028;2022-11-20T14:25:22;14.67;;;11.17;;
912;SDS011;443;51.448;7.028;2022-11-20T14:27:54;12.70;;;9.20;;
912;SDS011;443;51.448;7.028;2022-11-20T14:30:23;15.17;;;10.40;;
912;SDS011;443;51.448;7.028;2022-11-20T14:32:51;14.33;;;9.60;;
912;SDS011;443;51.448;7.028;2022-11-20T14:35:23;16.27;;;10.90;;
912;SDS011;443;51.448;7.028;2022-11-20T14:37:51;13.00;;;8.93;;
912;SDS011;443;51.448;7.028;2022-11-20T14:40:23;22.00;;;10.17;;
912;SDS011;443;51.448;7.028;2022-11-20T14:42:53;17.03;;;10.80;;
912;SDS011;443;51.448;7.028;2022-11-20T14:45:20;15.27;;;8.50;;
912;SDS011;443;51.448;7.028;2022-11-20T14:47:48;20.33;;;10.73;;
912;SDS011;443;51.448;7.028;2022-11-20T14:50:17;17.60;;;11.10;;
912;SDS011;443;51.448;7.028;2022-11-20T14:52:51;14.17;;;10.73;;
912;SDS011;443;51.448;7.028;2022-11-20T14:55:25;15.33;;;9.93;;
912;SDS011;443;51.448;7.028;2022-11-20T14:57:56;21.23;;;13.00;;
912;SDS011;443;51.448;7.028;2022-11-20T15:00:24;17.87;;;11.20;;
912;SDS011;443;51.448;7.028;2022-11-20T15:02:51;18.83;;;11.77;;
912;SDS011;443;51.448;7.028;2022-11-20T15:05:19;17.70;;;9.97;;
912;SDS011;443;51.448;7.028;2022-11-20T15:07:48;19.63;;;11.10;;
912;SDS011;443;51.448;7.028;2022-11-20T15:10:19;15.60;;;10.63;;
912;SDS011;443;51.448;7.028;2022-11-20T15:12:49;21.73;;;12.60;;
912;SDS011;443;51.448;7.028;2022-11-20T15:15:20;14.63;;;10.80;;
912;SDS011;443;51.448;7.028;2022-11-20T15:17:51;19.20;;;12.10;;
912;SDS011;443;51.448;7.028;2022-11-20T15:20:18;17.57;;;9.97;;
912;SDS011;443;51.448;7.028;2022-11-20T15:22:44;19.60;;;11.50;;
912;SDS011;443;51.448;7.028;2022-11-20T15:25:12;19.87;;;11.93;;
912;SDS011;443;51.448;7.028;2022-11-20T15:27:39;14.17;;;10.27;;
912;SDS011;443;51.448;7.028;2022-11-20T15:30:11;14.23;;;9.77;;
912;SDS011;443;51.448;7.028;2022-11-20T15:32:41;18.97;;;10.47;;
912;SDS011;443;51.448;7.028;2022-11-20T15:35:08;11.77;;;9.30;;
912;SDS011;443;51.448;7.028;2022-11-20T15:37:35;16.10;;;11.40;;
912;SDS011;443;51.448;7.028;2022-11-20T15:40:02;15.20;;;10.20;;
912;SDS011;443;51.448;7.028;2022-11-20T15:42:30;16.80;;;10.77;;
912;SDS011;443;51.448;7.028;2022-11-20T15:44:56;15.00;;;9.93;;
912;SDS011;443;51.448;7.028;2022-11-20T15:47:24;19.67;;;11.50;;
912;SDS011;443;51.448;7.028;2022-11-20T15:49:55;24.90;;;10.93;;